Hacienda Heights, CA (91745)

10:21 PM PDT on April 26, 2017 (GMT -0700)
Daytona Ave., Pete & Katie's House | | Change Station
Active Advisory: Wind Advisory Active Notice: Public Information Statement

Elev 640 ft 33.99 °N, 117.99 °W | Updated 11 seconds ago

Partly Cloudy
Partly Cloudy
64.0 °F
Feels Like 64.0 °F
N
4.5
Wind Variable Wind from South
Gusts 4.9 mph

Today
High -- | Low -- °F
--% Chance of Precip.
Yesterday
High -- | Low -- °F
Precip. -- in
Pressure 29.84 in
Visibility 10.0 miles
Clouds Clear
Dew Point 58 °F
Humidity 81%
Rainfall 0.00 in
Snow Depth Not available.
6:07 AM 7:32 PM
New Moon, 1% visible
METAR KFUL 270453Z AUTO 15006KT 10SM CLR 18/14 A2984 RMK AO2 SLP103 T01780144
Pressure 29.84 in
Visibility 10.0 miles
Clouds Clear
Dew Point 58 °F
Humidity 81%
Rainfall 0.00 in
Snow Depth Not available.
6:07 AM 7:32 PM
New Moon, 1% visible
METAR KFUL 270453Z AUTO 15006KT 10SM CLR 18/14 A2984 RMK AO2 SLP103 T01780144

Get Your Daily Forecast Email!

Thanks for signing up!

Be on the lookout for a verification email in your inbox.

You'll start receiving severe weather alerts in your inbox..

×

10-Day Weather Forecast

Almanac

Astronomy

Apr. 26, 2017 Rise Set
Actual Time
Civil Twilight
Nautical Twilight
Astronomical Twilight
Moon
Length of Visible Light
Length of Day
Tomorrow will be .
, % of the Moon is Illuminated

Today's Extremes

State Highs State Lows

Community

WunderPhotos

WunderBlog® & News

Nearby

Air Quality

  Air Quality AQ Index Pollutant
Not available.

Snow Depth

Station Depth Elevation

Earthquake Activity

City Distance Mag. Time & Date
Minimum magnitude displayed is 2.5.

Coastal Water Temperatures

Place Temperature

Stations

Nearby Weather Stations

Station Location Temp. Windchill Dew Point Humidity Wind Precip. Elev Updated Type
                   

Watches & Warnings

Wind Advisory
Issued: 9:02 PM PDT Apr. 26, 2017 – National Weather Service

... Wind Advisory remains in effect until 9 am PDT Thursday...

* winds and timing... areas of gusty northerly winds will
increase through this evening to 15 to 25 mph with gusts to 40
mph then continue into Thursday morning.

* Impacts... gusty winds will make driving difficult, especially
for drivers of high profile vehicles. Major roads that will be
affected include interstates 10, 710, and 605.

Precautionary/preparedness actions...

When driving, use extra caution. Be prepared for sudden gusty
cross winds.